Huvudsida
METAR-TAF:

METAR-TAF

Flygplatser :

Linköping City Airport

Linköping, Sverige

latitud: 58-24N, longitud: 015-41E, höjd: 52 m

Aktuellt väderrapport

Denna rapport gjordes för 1 timme och 5 minuter sedan, klockan 13:50 UTC
Vind 10 kt från väst/nordväst, varierande mellan väst och nordväst
Temperatur 19°C
Fuktighet 68%
Tryck 1008 hPa
Sikt 10 km eller mer
Spridda moln på en höjd av 2900 ft

METAR: ESSL 201350Z 29010KT 260V320 9999 SCT029 19/13 Q1008

Tid: 16:55 (14:55 UTC)

Väderprognos

Denna rapport gjordes för 1 timme och 22 minuter sedan, klockan 13:33 UTC
Prognos gäller från 20 kl. 13 UTC till 20 kl. 21 UTC
Vind 8 kt från väst/nordväst i byarna ända upp till 18 kt
Sikt 10 km eller mer
Spridda moln på en höjd av 2000 ft

TAF: ESSL 201333Z 2013/2021 30008G18KT 9999 SCT020

Aktuella väderrapporter och prognoser från 4000 flygplatser (METAR- och TAF-rapporter).

De tillgängliga stationerna syns som gula och röda prickar på kartan.

För musen över prickarna för att se namnen på stationerna.

Klicka sedan för att få väderrapporter och prognoser.

För att ändra kartan: Klicka på de gröna knapparna med ett svart kors på för att zooma in; den gröna knappen med ett streck på för att zooma ut; eller på de gröna pilarna för angränsande kartor.


METAR-TAF: